Time;durP1;ratioP1;P1;durP2;ratioP2;P2;SDS_P1;SDS_P2;PMS_P1;PMS_P2;Temp;Humidity;BMP_temperature;BMP_pressure;BME280_temperature;BME280_humidity;BME280_pressure;Samples;Min_cycle;Max_cycle;Signal;HPM_P1;HPM_P2
2022/09/17 00:01:23;;;;;;;4.35;1.67;;;9.10;99.90;;;;;;4990402;28;20093;-68
2022/09/17 00:03:54;;;;;;;4.28;1.83;;;9.10;99.90;;;;;;4990346;28;20061;-67
2022/09/17 00:06:23;;;;;;;2.83;1.50;;;9.10;99.90;;;;;;4985403;28;20109;-67
2022/09/17 00:08:52;;;;;;;2.88;1.50;;;9.10;99.90;;;;;;4988554;28;20046;-67
2022/09/17 00:11:25;;;;;;;3.40;1.88;;;9.10;99.90;;;;;;4989803;28;20038;-67
2022/09/17 00:13:53;;;;;;;4.72;1.77;;;9.10;99.90;;;;;;5005195;28;20073;-68
2022/09/17 00:16:24;;;;;;;2.42;1.52;;;9.10;99.90;;;;;;4990240;28;20046;-68
2022/09/17 00:18:52;;;;;;;2.67;1.60;;;9.10;99.90;;;;;;4990524;28;20335;-68
2022/09/17 00:21:20;;;;;;;4.38;1.48;;;9.00;99.90;;;;;;4989900;28;20050;-68
2022/09/17 00:23:47;;;;;;;2.92;1.60;;;9.00;99.90;;;;;;4989328;28;20046;-67
2022/09/17 00:26:15;;;;;;;3.38;1.60;;;9.00;99.90;;;;;;4989786;28;20064;-68
2022/09/17 00:28:47;;;;;;;3.97;1.75;;;9.00;99.90;;;;;;5001519;28;20316;-67
2022/09/17 00:31:14;;;;;;;3.85;1.73;;;9.00;99.90;;;;;;4984081;28;20043;-68
2022/09/17 00:33:45;;;;;;;5.30;1.98;;;9.00;99.90;;;;;;4969017;28;20138;-68
2022/09/17 00:36:12;;;;;;;6.90;1.80;;;9.00;99.90;;;;;;4988318;28;20061;-68
2022/09/17 00:38:40;;;;;;;7.32;2.38;;;9.00;99.90;;;;;;4993398;28;20046;-68
2022/09/17 00:41:07;;;;;;;3.85;2.22;;;9.00;99.90;;;;;;4992056;28;20054;-69
2022/09/17 00:43:40;;;;;;;5.53;2.13;;;8.90;99.90;;;;;;4995221;28;20097;-69
2022/09/17 00:46:37;;;;;;;4.40;2.30;;;8.90;99.90;;;;;;4993544;28;20480;-68
2022/09/17 00:49:21;;;;;;;6.43;2.33;;;8.80;99.90;;;;;;4993653;28;20053;-68
2022/09/17 00:52:18;;;;;;;5.97;2.38;;;8.80;99.90;;;;;;4993239;28;20042;-68
2022/09/17 00:54:56;;;;;;;7.30;2.25;;;8.80;99.90;;;;;;4993101;28;20156;-69
2022/09/17 00:57:24;;;;;;;7.32;3.13;;;8.80;99.90;;;;;;4994067;28;20101;-68
2022/09/17 00:59:51;;;;;;;7.68;3.15;;;8.80;99.90;;;;;;4992929;28;20054;-68
2022/09/17 01:02:19;;;;;;;7.25;2.92;;;8.80;99.90;;;;;;4993395;28;20054;-68
2022/09/17 01:04:46;;;;;;;7.22;3.20;;;8.80;99.90;;;;;;4993224;28;20049;-68
2022/09/17 01:07:47;;;;;;;7.43;3.45;;;8.90;99.90;;;;;;4988490;28;20038;-68
2022/09/17 01:10:49;;;;;;;10.07;3.70;;;8.90;99.90;;;;;;4988684;28;20053;-68
2022/09/17 01:13:41;;;;;;;6.45;3.47;;;8.90;99.90;;;;;;4992838;28;20050;-66
2022/09/17 01:16:34;;;;;;;8.68;3.90;;;8.90;99.90;;;;;;4988613;28;20489;-68
2022/09/17 01:19:10;;;;;;;11.75;4.03;;;8.90;99.90;;;;;;4993075;28;20493;-67
2022/09/17 01:21:42;;;;;;;9.90;4.70;;;8.80;99.90;;;;;;4992614;28;20050;-68
2022/09/17 01:24:31;;;;;;;10.20;4.53;;;8.80;99.90;;;;;;4992943;28;20042;-68
2022/09/17 01:27:31;;;;;;;11.00;4.85;;;8.80;99.90;;;;;;4991382;28;20089;-68
2022/09/17 01:30:37;;;;;;;9.60;4.60;;;8.80;99.90;;;;;;4989977;28;20043;-68
2022/09/17 01:33:23;;;;;;;11.05;5.32;;;8.80;99.90;;;;;;4989605;28;20070;-69
2022/09/17 01:36:12;;;;;;;10.57;5.43;;;8.80;99.90;;;;;;4981487;28;20043;-68
2022/09/17 01:39:01;;;;;;;9.43;4.85;;;8.80;99.90;;;;;;4989388;28;20042;-68
2022/09/17 01:41:44;;;;;;;9.00;5.10;;;8.80;99.90;;;;;;4988911;28;20382;-68
2022/09/17 01:44:30;;;;;;;9.00;5.05;;;8.80;99.90;;;;;;4992567;28;20053;-68
2022/09/17 01:47:26;;;;;;;10.18;5.03;;;8.80;99.90;;;;;;4990826;28;20074;-69
2022/09/17 01:50:08;;;;;;;8.43;4.32;;;8.80;99.90;;;;;;4987514;28;20049;-68
2022/09/17 01:52:39;;;;;;;10.02;5.18;;;8.80;99.90;;;;;;4990813;28;20046;-68
2022/09/17 01:55:15;;;;;;;11.45;5.10;;;8.70;99.90;;;;;;4987447;28;20050;-68
2022/09/17 01:58:04;;;;;;;7.57;4.63;;;8.70;99.90;;;;;;4981938;28;20465;-68
2022/09/17 02:00:32;;;;;;;7.97;4.72;;;8.70;99.90;;;;;;4986787;28;20054;-68
2022/09/17 02:03:07;;;;;;;9.98;4.07;;;8.70;99.90;;;;;;4983074;28;20140;-68
2022/09/17 02:05:43;;;;;;;9.00;4.10;;;8.70;99.90;;;;;;4991765;28;20042;-69
2022/09/17 02:08:37;;;;;;;12.07;4.53;;;8.70;99.90;;;;;;4988526;28;20065;-68
2022/09/17 02:11:08;;;;;;;9.30;4.22;;;8.70;99.90;;;;;;4975542;28;20070;-68
2022/09/17 02:13:44;;;;;;;10.77;4.63;;;8.70;99.90;;;;;;4989109;28;20097;-68
2022/09/17 02:16:15;;;;;;;10.75;4.90;;;8.70;99.90;;;;;;5005519;28;20069;-68
2022/09/17 02:19:07;;;;;;;10.88;4.35;;;8.70;99.90;;;;;;4990606;28;20062;-68
2022/09/17 02:21:58;;;;;;;9.63;4.45;;;8.70;99.90;;;;;;4991226;28;20121;-69
2022/09/17 02:24:33;;;;;;;10.43;4.43;;;8.80;99.90;;;;;;4999646;28;20156;-68
2022/09/17 02:27:10;;;;;;;10.38;4.30;;;8.90;99.90;;;;;;4985222;28;20052;-68
2022/09/17 02:29:43;;;;;;;7.38;3.75;;;9.00;99.90;;;;;;4977804;28;20399;-68
2022/09/17 02:32:12;;;;;;;14.07;4.43;;;9.10;99.90;;;;;;4989235;28;20057;-70
2022/09/17 02:34:39;;;;;;;11.82;4.10;;;9.10;99.90;;;;;;4999343;28;20504;-68
2022/09/17 02:37:07;;;;;;;8.48;3.78;;;9.10;99.90;;;;;;4987725;28;20420;-69
2022/09/17 02:39:34;;;;;;;11.30;3.90;;;9.20;99.90;;;;;;4985805;28;20108;-68
2022/09/17 02:42:16;;;;;;;11.60;3.78;;;9.20;99.90;;;;;;4985815;28;20393;-68
2022/09/17 02:45:01;;;;;;;8.70;4.50;;;9.20;99.90;;;;;;4990397;28;20050;-68
2022/09/17 02:47:57;;;;;;;8.13;3.72;;;9.20;99.90;;;;;;4990816;28;20053;-68
2022/09/17 02:50:39;;;;;;;11.70;4.53;;;9.30;99.90;;;;;;4973055;28;20343;-68
2022/09/17 02:53:13;;;;;;;9.93;4.22;;;9.30;99.90;;;;;;4991544;28;20508;-68
2022/09/17 02:56:05;;;;;;;7.13;4.28;;;9.30;99.90;;;;;;4991367;28;20057;-69
2022/09/17 02:58:56;;;;;;;9.68;3.95;;;9.40;99.90;;;;;;5003688;28;20414;-68
2022/09/17 03:01:31;;;;;;;8.55;4.10;;;9.30;99.90;;;;;;4989312;28;20053;-68
2022/09/17 03:04:01;;;;;;;11.27;4.78;;;9.30;99.90;;;;;;5002322;28;20150;-68
2022/09/17 03:06:29;;;;;;;14.27;4.07;;;9.30;99.90;;;;;;4983244;28;20050;-68
2022/09/17 03:08:56;;;;;;;11.77;4.60;;;9.30;99.90;;;;;;5002678;28;20329;-67
2022/09/17 03:11:24;;;;;;;9.98;4.00;;;9.30;99.90;;;;;;4984186;28;20093;-68
2022/09/17 03:13:51;;;;;;;7.25;3.97;;;9.40;99.90;;;;;;4984232;28;20515;-68
2022/09/17 03:16:18;;;;;;;6.75;4.40;;;9.40;99.90;;;;;;4989516;28;20049;-70
2022/09/17 03:18:46;;;;;;;8.73;3.90;;;9.30;99.90;;;;;;4989914;28;20046;-68
2022/09/17 03:21:13;;;;;;;9.70;4.25;;;9.40;99.90;;;;;;4987559;28;20539;-68
2022/09/17 03:23:40;;;;;;;11.50;5.13;;;9.40;99.90;;;;;;4984077;28;20049;-68
2022/09/17 03:26:08;;;;;;;10.63;4.25;;;9.40;99.90;;;;;;4986258;28;20050;-68
2022/09/17 03:28:35;;;;;;;14.27;4.93;;;9.40;99.90;;;;;;4982832;28;20464;-69
2022/09/17 03:31:04;;;;;;;10.07;4.38;;;9.40;99.90;;;;;;4988236;28;20050;-67
2022/09/17 03:33:32;;;;;;;7.88;4.63;;;9.40;99.90;;;;;;4983822;28;20049;-68
2022/09/17 03:36:00;;;;;;;11.43;4.50;;;9.50;99.90;;;;;;5000621;28;20101;-68
2022/09/17 03:38:27;;;;;;;10.00;4.28;;;9.40;99.90;;;;;;4988423;28;20051;-68
2022/09/17 03:41:03;;;;;;;10.10;4.25;;;9.40;99.90;;;;;;4988473;28;20049;-68
2022/09/17 03:43:30;;;;;;;10.50;4.38;;;9.40;99.90;;;;;;4989298;28;20121;-68
2022/09/17 03:45:57;;;;;;;9.98;4.07;;;9.40;99.90;;;;;;4981892;28;20077;-72
2022/09/17 03:48:25;;;;;;;10.10;4.30;;;9.40;99.90;;;;;;5002695;28;20429;-72
2022/09/17 03:50:52;;;;;;;9.15;4.10;;;9.40;99.90;;;;;;4990423;28;20081;-72
2022/09/17 03:53:19;;;;;;;9.25;4.05;;;9.50;99.90;;;;;;4990609;28;20097;-71
2022/09/17 03:55:47;;;;;;;8.23;3.97;;;9.40;99.90;;;;;;4990729;28;20058;-71
2022/09/17 03:58:14;;;;;;;7.63;3.85;;;9.40;99.90;;;;;;4990849;28;20411;-71
2022/09/17 04:00:41;;;;;;;7.72;3.70;;;9.30;99.90;;;;;;4990593;28;20053;-71
2022/09/17 04:03:09;;;;;;;10.18;3.58;;;9.30;99.90;;;;;;4989368;28;20438;-71
2022/09/17 04:05:36;;;;;;;8.30;3.20;;;9.40;99.90;;;;;;4989165;28;20035;-72
2022/09/17 04:08:03;;;;;;;7.78;3.63;;;9.40;99.90;;;;;;4980879;28;20042;-71
2022/09/17 04:10:31;;;;;;;9.05;3.45;;;9.30;99.90;;;;;;4980265;28;20402;-70
2022/09/17 04:12:58;;;;;;;10.10;5.07;;;9.30;99.90;;;;;;4990964;28;20057;-71
2022/09/17 04:15:25;;;;;;;8.27;3.53;;;9.30;99.90;;;;;;4984981;28;20038;-71
2022/09/17 04:17:56;;;;;;;10.57;3.63;;;9.20;99.90;;;;;;4993802;28;20496;-71
2022/09/17 04:20:24;;;;;;;7.35;3.50;;;9.20;99.90;;;;;;4981706;28;20039;-71
2022/09/17 04:22:51;;;;;;;6.65;3.60;;;9.30;99.90;;;;;;4984089;28;20046;-71
2022/09/17 04:25:19;;;;;;;7.47;3.10;;;9.30;99.90;;;;;;4992747;28;20055;-71
2022/09/17 04:27:47;;;;;;;8.05;3.55;;;9.40;99.90;;;;;;4987833;28;20093;-70
2022/09/17 04:30:14;;;;;;;9.77;3.28;;;9.40;99.90;;;;;;4992728;28;20050;-71
2022/09/17 04:32:44;;;;;;;14.50;3.60;;;9.30;99.90;;;;;;4993883;28;20085;-74
2022/09/17 04:35:11;;;;;;;11.65;3.65;;;9.30;99.90;;;;;;4990887;28;20046;-72
2022/09/17 04:37:39;;;;;;;9.82;3.30;;;9.40;99.90;;;;;;4986172;28;20038;-71
2022/09/17 04:40:07;;;;;;;5.78;2.83;;;9.40;99.90;;;;;;4988747;28;20043;-71
2022/09/17 04:42:35;;;;;;;7.70;3.10;;;9.40;99.90;;;;;;5000342;28;20054;-71
2022/09/17 04:45:02;;;;;;;7.50;3.03;;;9.40;99.90;;;;;;4992163;28;20104;-70
2022/09/17 04:47:29;;;;;;;7.82;2.97;;;9.40;99.90;;;;;;4991465;28;20385;-73
2022/09/17 04:49:57;;;;;;;10.90;3.20;;;9.30;99.90;;;;;;4994951;28;20493;-71
2022/09/17 04:52:24;;;;;;;12.95;3.25;;;9.30;99.90;;;;;;4990557;28;20366;-72
2022/09/17 04:54:56;;;;;;;9.48;3.13;;;9.30;99.90;;;;;;4983192;28;20475;-72
2022/09/17 04:57:25;;;;;;;5.80;3.30;;;9.30;99.90;;;;;;4992498;28;20505;-73
2022/09/17 04:59:52;;;;;;;8.02;3.47;;;9.20;99.90;;;;;;5001224;28;20050;-72
2022/09/17 05:02:19;;;;;;;9.85;3.70;;;9.30;99.90;;;;;;4987421;28;20045;-72
2022/09/17 05:04:47;;;;;;;10.80;2.92;;;9.30;99.90;;;;;;4987628;28;20428;-72
2022/09/17 05:07:14;;;;;;;7.35;2.80;;;9.30;99.90;;;;;;4976943;28;20042;-69
2022/09/17 05:09:41;;;;;;;10.82;3.50;;;9.30;99.90;;;;;;4992857;28;20540;-71
2022/09/17 05:12:09;;;;;;;12.30;3.45;;;9.40;99.90;;;;;;4992329;28;20054;-71
2022/09/17 05:14:36;;;;;;;10.98;3.22;;;9.40;99.90;;;;;;4987283;28;20062;-71
2022/09/17 05:17:03;;;;;;;5.65;2.90;;;9.40;99.90;;;;;;4991687;28;20042;-72
2022/09/17 05:19:31;;;;;;;11.45;3.65;;;9.40;99.90;;;;;;4989480;28;20508;-71
2022/09/17 05:21:58;;;;;;;6.88;2.88;;;9.40;99.90;;;;;;4991854;28;20124;-71
2022/09/17 05:24:26;;;;;;;11.52;3.38;;;9.40;99.90;;;;;;4990094;28;20500;-70
2022/09/17 05:26:54;;;;;;;6.18;2.70;;;9.50;99.90;;;;;;4985335;28;20046;-69
2022/09/17 05:29:21;;;;;;;8.77;2.63;;;9.30;99.90;;;;;;4993148;28;20041;-72
2022/09/17 05:31:48;;;;;;;7.78;2.88;;;9.40;99.90;;;;;;4992260;28;20042;-71
2022/09/17 05:34:15;;;;;;;10.45;2.90;;;9.50;99.90;;;;;;4994263;28;20073;-72
2022/09/17 05:36:43;;;;;;;9.30;2.80;;;9.50;99.90;;;;;;4992754;28;20497;-72
2022/09/17 05:39:10;;;;;;;11.15;3.67;;;9.40;99.90;;;;;;5007839;28;20054;-71
2022/09/17 05:41:37;;;;;;;8.00;3.00;;;9.40;99.90;;;;;;4992552;28;20043;-71
2022/09/17 05:44:05;;;;;;;10.23;3.03;;;9.30;99.90;;;;;;4993236;28;20058;-71
2022/09/17 05:46:32;;;;;;;9.40;2.63;;;9.30;99.90;;;;;;4990315;28;20680;-71
2022/09/17 05:48:59;;;;;;;5.68;2.20;;;9.20;99.90;;;;;;4991448;28;20045;-68
2022/09/17 05:51:26;;;;;;;4.72;2.10;;;9.10;99.90;;;;;;4991827;28;20042;-71
2022/09/17 05:53:54;;;;;;;8.07;2.50;;;9.00;99.90;;;;;;5007698;28;20093;-72
2022/09/17 05:56:22;;;;;;;6.50;2.20;;;9.00;99.90;;;;;;4992721;28;20413;-69
2022/09/17 05:58:55;;;;;;;4.00;2.00;;;9.00;99.90;;;;;;4992892;28;20069;-67
2022/09/17 06:01:23;;;;;;;4.18;1.70;;;9.00;99.90;;;;;;4992608;28;20046;-67
2022/09/17 06:03:50;;;;;;;4.47;1.80;;;9.00;99.90;;;;;;4989846;28;20915;-68
2022/09/17 06:06:17;;;;;;;4.75;1.83;;;8.90;99.90;;;;;;4985845;28;20453;-69
2022/09/17 06:08:45;;;;;;;6.57;1.95;;;8.90;99.90;;;;;;4986824;28;20057;-67
2022/09/17 06:11:12;;;;;;;3.75;1.58;;;8.90;99.90;;;;;;4988779;28;20092;-68
2022/09/17 06:13:42;;;;;;;4.55;1.92;;;8.90;99.90;;;;;;4978545;28;20047;-68
2022/09/17 06:16:09;;;;;;;5.03;2.08;;;8.90;99.90;;;;;;4991366;28;20070;-68
2022/09/17 06:18:36;;;;;;;5.55;1.60;;;8.90;99.90;;;;;;4988524;28;20053;-68
2022/09/17 06:21:04;;;;;;;5.03;1.77;;;8.80;99.90;;;;;;5006104;28;20565;-68
2022/09/17 06:23:36;;;;;;;6.30;2.20;;;8.90;99.90;;;;;;4991712;28;20405;-68
2022/09/17 06:26:04;;;;;;;5.07;1.70;;;8.90;99.90;;;;;;4990345;28;20456;-68
2022/09/17 06:28:32;;;;;;;5.18;1.83;;;9.00;99.90;;;;;;4988667;28;20144;-68
2022/09/17 06:31:06;;;;;;;3.53;2.05;;;9.00;99.90;;;;;;4989513;28;20160;-68
2022/09/17 06:33:35;;;;;;;3.67;1.60;;;9.00;99.90;;;;;;4990563;28;20038;-68
2022/09/17 06:36:06;;;;;;;4.10;2.00;;;9.00;99.90;;;;;;4987932;28;20046;-68
2022/09/17 06:38:40;;;;;;;5.88;2.05;;;9.00;99.90;;;;;;4990909;28;20038;-68
2022/09/17 06:41:07;;;;;;;9.32;2.97;;;9.00;99.90;;;;;;4988511;28;20054;-68
2022/09/17 06:43:35;;;;;;;8.00;3.05;;;9.00;99.90;;;;;;4991117;28;20045;-68
2022/09/17 06:46:04;;;;;;;5.20;2.67;;;9.00;99.90;;;;;;4990051;28;20416;-68
2022/09/17 06:48:34;;;;;;;6.30;2.15;;;8.90;99.90;;;;;;4983653;28;20074;-67
2022/09/17 06:51:03;;;;;;;5.45;2.00;;;9.00;99.90;;;;;;4989200;28;20046;-66
2022/09/17 06:53:30;;;;;;;6.15;2.28;;;9.00;99.90;;;;;;4990938;28;20049;-68
2022/09/17 06:55:59;;;;;;;6.18;2.20;;;8.80;99.90;;;;;;4986824;28;20630;-68
2022/09/17 06:58:33;;;;;;;5.60;2.03;;;8.80;99.90;;;;;;4990316;28;20085;-68
2022/09/17 07:01:00;;;;;;;5.97;2.08;;;8.90;99.90;;;;;;4989310;28;20072;-68
2022/09/17 07:03:29;;;;;;;3.35;1.80;;;8.80;99.90;;;;;;4991063;28;20077;-69
2022/09/17 07:05:57;;;;;;;4.20;2.05;;;8.90;99.90;;;;;;4976936;28;20129;-68
2022/09/17 07:08:25;;;;;;;3.90;1.92;;;8.90;99.90;;;;;;4983985;28;20416;-69
2022/09/17 07:10:56;;;;;;;3.63;1.88;;;8.90;99.90;;;;;;4983919;28;20042;-68
2022/09/17 07:13:25;;;;;;;7.00;2.15;;;9.00;99.90;;;;;;4984571;28;20048;-68
2022/09/17 07:15:57;;;;;;;4.85;2.22;;;9.00;99.90;;;;;;4975959;28;20042;-68
2022/09/17 07:18:25;;;;;;;5.80;2.38;;;9.10;99.90;;;;;;4984185;28;20035;-69
2022/09/17 07:21:01;;;;;;;5.25;2.13;;;9.00;99.90;;;;;;4990599;28;20054;-70
2022/09/17 07:23:34;;;;;;;8.60;3.00;;;9.00;99.90;;;;;;4988596;28;20047;-69
2022/09/17 07:26:08;;;;;;;4.47;2.53;;;9.00;99.90;;;;;;4986444;28;20420;-70
2022/09/17 07:28:38;;;;;;;5.65;2.58;;;9.00;99.90;;;;;;4988839;28;20274;-70
2022/09/17 07:31:06;;;;;;;7.18;2.83;;;9.00;99.90;;;;;;4973059;28;20737;-71
2022/09/17 07:33:39;;;;;;;6.15;3.47;;;9.00;99.90;;;;;;4989461;28;20455;-73
2022/09/17 07:36:10;;;;;;;6.63;2.90;;;9.10;99.90;;;;;;4986689;28;20035;-69
2022/09/17 07:38:38;;;;;;;10.38;3.35;;;9.10;99.90;;;;;;4988754;28;20039;-69
2022/09/17 07:41:13;;;;;;;6.80;3.45;;;9.10;99.90;;;;;;5001823;28;20045;-69
2022/09/17 07:43:42;;;;;;;7.25;3.40;;;9.10;99.90;;;;;;4983396;28;20038;-68
2022/09/17 07:46:15;;;;;;;6.82;3.30;;;9.20;99.90;;;;;;4989788;28;20050;-68
2022/09/17 07:48:44;;;;;;;9.57;3.75;;;9.30;99.90;;;;;;4991602;28;20050;-69
2022/09/17 07:51:23;;;;;;;7.40;3.63;;;9.20;99.90;;;;;;4990816;28;20053;-69
2022/09/17 07:53:56;;;;;;;7.50;4.30;;;9.20;99.90;;;;;;4992949;28;20042;-70
2022/09/17 07:56:25;;;;;;;7.53;3.65;;;9.30;99.90;;;;;;4988321;28;20081;-69
2022/09/17 07:58:54;;;;;;;10.93;4.18;;;9.30;99.90;;;;;;4980286;28;20061;-69
2022/09/17 08:01:21;;;;;;;8.77;3.72;;;9.40;99.90;;;;;;4991931;28;20534;-69
2022/09/17 08:03:50;;;;;;;8.68;4.00;;;9.50;99.90;;;;;;5004718;28;20069;-71
2022/09/17 08:06:22;;;;;;;12.32;3.58;;;9.50;99.90;;;;;;4988454;28;20035;-69
2022/09/17 08:08:49;;;;;;;6.97;3.75;;;9.50;99.90;;;;;;4989600;28;20511;-68
2022/09/17 08:11:19;;;;;;;9.07;3.63;;;9.60;99.90;;;;;;5005270;28;20485;-70
2022/09/17 08:14:10;;;;;;;7.82;3.90;;;9.50;99.90;;;;;;4991407;28;20045;-68
2022/09/17 08:16:37;;;;;;;9.68;4.60;;;9.50;99.90;;;;;;5007416;28;20134;-69
2022/09/17 08:19:04;;;;;;;11.55;4.70;;;9.50;99.90;;;;;;4996257;28;20140;-69
2022/09/17 08:21:32;;;;;;;14.60;4.38;;;9.50;99.90;;;;;;4990229;28;20424;-69
2022/09/17 08:23:59;;;;;;;11.23;4.13;;;9.50;99.90;;;;;;4989209;28;20050;-69
2022/09/17 08:26:26;;;;;;;8.07;4.05;;;9.50;99.90;;;;;;4993680;28;20422;-69
2022/09/17 08:28:55;;;;;;;7.45;4.28;;;9.50;99.90;;;;;;4992404;28;20473;-70
2022/09/17 08:31:25;;;;;;;10.23;4.68;;;9.50;99.90;;;;;;4989161;28;20034;-69
2022/09/17 08:33:53;;;;;;;10.38;4.40;;;9.50;99.90;;;;;;4991034;28;20510;-68
2022/09/17 08:36:21;;;;;;;8.27;4.50;;;9.60;99.90;;;;;;4982707;28;20105;-68
2022/09/17 08:38:53;;;;;;;6.30;4.00;;;9.70;99.90;;;;;;4993009;28;20534;-68
2022/09/17 08:41:35;;;;;;;10.65;4.03;;;9.70;99.90;;;;;;4988979;28;20053;-72
2022/09/17 08:44:03;;;;;;;9.88;4.05;;;9.70;99.90;;;;;;4998253;28;20042;-70
2022/09/17 08:46:45;;;;;;;11.95;4.97;;;9.70;99.90;;;;;;4992114;28;20081;-69
2022/09/17 08:49:25;;;;;;;11.15;4.07;;;9.80;99.90;;;;;;5006099;28;20081;-67
2022/09/17 08:52:19;;;;;;;10.07;3.92;;;9.80;99.90;;;;;;4987964;28;20046;-69
2022/09/17 08:55:05;;;;;;;11.93;4.05;;;9.80;99.90;;;;;;4985730;28;20046;-68
2022/09/17 08:57:52;;;;;;;8.77;3.92;;;10.00;99.90;;;;;;5005200;28;20097;-69
2022/09/17 09:00:21;;;;;;;10.10;3.92;;;10.20;99.90;;;;;;4991086;28;20046;-68
2022/09/17 09:03:23;;;;;;;8.88;4.22;;;10.20;99.90;;;;;;4983132;28;20105;-67
2022/09/17 09:05:51;;;;;;;10.73;3.78;;;10.50;99.90;;;;;;4989613;28;20477;-68
2022/09/17 09:08:49;;;;;;;11.85;3.80;;;10.60;99.90;;;;;;4986470;28;20124;-68
2022/09/17 09:11:25;;;;;;;9.73;3.38;;;10.80;99.90;;;;;;4987239;28;20093;-69
2022/09/17 09:14:25;;;;;;;10.52;3.50;;;10.90;99.90;;;;;;4989188;28;20042;-70
2022/09/17 09:16:55;;;;;;;6.22;3.05;;;11.00;99.90;;;;;;4957438;28;20050;-69
2022/09/17 09:19:25;;;;;;;12.00;3.50;;;11.50;99.90;;;;;;5008267;28;20511;-70
2022/09/17 09:22:02;;;;;;;10.65;3.20;;;11.40;99.90;;;;;;4984513;28;20042;-69
2022/09/17 09:24:43;;;;;;;9.50;3.33;;;11.40;99.90;;;;;;4988100;28;20074;-68
2022/09/17 09:27:17;;;;;;;9.77;3.20;;;11.50;99.90;;;;;;4968753;28;20522;-69
2022/09/17 09:29:58;;;;;;;7.82;3.13;;;11.60;99.90;;;;;;4992787;28;20038;-68
2022/09/17 09:32:37;;;;;;;11.25;3.10;;;11.70;99.90;;;;;;5001216;28;20395;-69
2022/09/17 09:35:32;;;;;;;10.88;3.80;;;11.80;99.90;;;;;;4990526;28;20515;-71
2022/09/17 09:38:43;;;;;;;11.20;3.38;;;11.70;99.90;;;;;;4991982;28;20077;-69
2022/09/17 09:41:16;;;;;;;;;;;11.80;99.90;;;;;;5003132;28;20042;-68
2022/09/17 09:43:51;;;;;;;14.05;3.78;;;11.70;99.90;;;;;;4992268;28;20012;-69
2022/09/17 09:46:49;;;;;;;11.35;3.55;;;11.70;99.90;;;;;;4995431;28;20050;-68
2022/09/17 09:49:49;;;;;;;13.90;3.90;;;11.70;99.90;;;;;;4981855;28;20393;-69
2022/09/17 09:52:45;;;;;;;18.27;4.45;;;11.80;99.90;;;;;;4979872;28;20046;-68
2022/09/17 09:55:22;;;;;;;12.52;3.72;;;11.80;99.90;;;;;;5005338;28;20046;-68
2022/09/17 09:58:02;;;;;;;12.02;4.03;;;11.60;99.90;;;;;;4987988;28;20046;-70
2022/09/17 10:00:35;;;;;;;12.55;3.97;;;11.50;99.90;;;;;;4991006;28;20405;-69
2022/09/17 10:03:16;;;;;;;13.13;3.92;;;11.70;99.90;;;;;;4992042;28;20042;-69
2022/09/17 10:06:04;;;;;;;14.18;3.78;;;11.90;99.90;;;;;;4988245;28;20462;-69
2022/09/17 10:08:34;;;;;;;12.20;3.80;;;11.90;99.90;;;;;;4986891;28;20056;-68
2022/09/17 10:11:12;;;;;;;14.23;3.60;;;11.80;99.90;;;;;;4991175;28;20065;-69
2022/09/17 10:13:39;;;;;;;9.52;3.10;;;12.00;99.90;;;;;;4991022;28;20053;-68
2022/09/17 10:16:25;;;;;;;9.63;3.25;;;12.00;99.90;;;;;;4987226;28;20061;-69
2022/09/17 10:19:04;;;;;;;11.88;4.00;;;12.10;99.90;;;;;;4990711;28;20085;-69
2022/09/17 10:21:41;;;;;;;14.73;4.28;;;12.20;99.90;;;;;;4986804;28;20424;-69
2022/09/17 10:24:31;;;;;;;14.30;4.00;;;12.50;99.90;;;;;;4991473;28;20416;-69
2022/09/17 10:27:11;;;;;;;10.20;3.60;;;12.60;99.90;;;;;;4990289;28;20086;-69
2022/09/17 10:29:43;;;;;;;10.93;3.80;;;12.90;99.90;;;;;;4991303;28;20046;-69
2022/09/17 10:32:28;;;;;;;11.10;3.95;;;13.10;99.90;;;;;;4986888;28;20066;-68
2022/09/17 10:35:04;;;;;;;9.13;3.60;;;13.00;99.90;;;;;;4964636;28;20046;-68
2022/09/17 10:37:47;;;;;;;9.52;3.53;;;12.90;99.90;;;;;;4964326;28;20035;-69
2022/09/17 10:40:17;;;;;;;11.82;3.78;;;13.30;99.90;;;;;;4989763;28;20050;-68
2022/09/17 10:42:46;;;;;;;8.85;3.50;;;13.60;99.90;;;;;;4993515;28;20043;-67
2022/09/17 10:45:24;;;;;;;8.93;3.88;;;13.50;99.90;;;;;;4987807;28;20433;-69
2022/09/17 10:47:52;;;;;;;12.13;4.05;;;13.60;99.90;;;;;;4987820;28;20046;-68
2022/09/17 10:50:27;;;;;;;11.77;3.88;;;13.70;99.90;;;;;;4977657;28;20042;-70
2022/09/17 10:52:58;;;;;;;10.82;3.50;;;13.30;99.90;;;;;;4985592;28;20042;-68
2022/09/17 10:56:02;;;;;;;5.85;3.00;;;13.20;99.90;;;;;;4990050;28;20734;-68
2022/09/17 10:59:03;;;;;;;11.45;3.58;;;13.00;99.90;;;;;;4986129;28;20469;-67
2022/09/17 11:01:47;;;;;;;9.40;3.50;;;12.90;99.90;;;;;;4943363;29;20074;-68
2022/09/17 11:04:26;;;;;;;12.48;3.78;;;13.00;99.90;;;;;;4939440;29;20558;-69
2022/09/17 11:07:12;;;;;;;9.00;3.50;;;13.70;99.90;;;;;;4931789;29;20056;-69
2022/09/17 11:10:13;;;;;;;11.32;3.33;;;14.30;99.90;;;;;;4948135;29;20085;-68
2022/09/17 11:13:05;;;;;;;11.05;3.63;;;14.50;99.90;;;;;;4934352;29;20474;-67
2022/09/17 11:15:39;;;;;;;;;;;14.70;99.90;;;;;;4931813;29;20126;-68
2022/09/17 11:18:24;;;;;;;6.90;3.63;;;14.60;99.90;;;;;;4949747;29;19930;-68
2022/09/17 11:21:07;;;;;;;8.65;3.72;;;14.40;99.90;;;;;;4936838;28;20385;-68
2022/09/17 11:24:13;;;;;;;10.85;4.20;;;14.30;99.90;;;;;;4947351;29;20124;-68
2022/09/17 11:26:40;;;;;;;18.17;4.38;;;14.50;99.90;;;;;;4945718;28;20051;-68
2022/09/17 11:29:10;;;;;;;9.15;3.55;;;14.70;99.90;;;;;;4932235;29;20198;-68
2022/09/17 11:32:15;;;;;;;9.57;4.20;;;14.90;99.90;;;;;;4949697;29;20394;-68
2022/09/17 11:35:00;;;;;;;7.80;3.83;;;14.90;99.90;;;;;;4946714;29;20126;-68
2022/09/17 11:37:37;;;;;;;8.00;4.25;;;15.30;99.90;;;;;;4937213;28;20052;-68
2022/09/17 11:40:21;;;;;;;10.65;3.78;;;15.30;99.90;;;;;;4987887;28;20130;-68
2022/09/17 11:43:15;;;;;;;10.40;3.88;;;15.40;99.90;;;;;;4977298;28;20505;-68
2022/09/17 11:45:56;;;;;;;9.77;3.97;;;15.80;99.90;;;;;;4987251;28;20491;-68
2022/09/17 11:48:45;;;;;;;9.90;4.03;;;15.70;99.90;;;;;;4975905;28;20035;-68
2022/09/17 11:51:47;;;;;;;6.53;3.67;;;15.70;99.90;;;;;;4987148;28;20154;-70
2022/09/17 11:54:14;;;;;;;;;;;15.80;99.90;;;;;;4957742;28;20046;-67
2022/09/17 11:56:50;;;;;;;9.43;3.88;;;15.60;99.90;;;;;;4988852;28;19921;-68
2022/09/17 11:59:32;;;;;;;7.75;3.72;;;15.70;99.90;;;;;;4990409;28;20047;-68
2022/09/17 12:02:11;;;;;;;10.65;3.88;;;16.20;99.90;;;;;;4988419;28;20045;-68
2022/09/17 12:05:00;;;;;;;10.70;4.45;;;15.80;99.90;;;;;;4988891;28;20282;-69
2022/09/17 12:07:31;;;;;;;8.27;4.28;;;15.30;99.90;;;;;;4984101;28;20477;-68
2022/09/17 12:10:33;;;;;;;7.80;4.13;;;15.00;99.90;;;;;;4982524;28;20068;-69
2022/09/17 12:13:19;;;;;;;;;;;14.70;99.90;;;;;;4911076;29;20051;-69
2022/09/17 12:15:50;;;;;;;9.98;4.07;;;14.00;99.90;;;;;;4895293;29;19927;-69
2022/09/17 12:18:47;;;;;;;10.48;4.07;;;13.40;99.90;;;;;;4909357;29;20048;-69
2022/09/17 12:21:32;;;;;;;9.43;3.70;;;12.80;99.90;;;;;;4911161;29;20048;-74
2022/09/17 12:24:06;;;;;;;11.63;4.78;;;12.20;99.90;;;;;;4908745;29;20557;-69
2022/09/17 12:26:42;;;;;;;9.15;5.05;;;12.00;99.90;;;;;;4908882;29;20044;-71
2022/09/17 12:29:24;;;;;;;13.00;4.57;;;12.10;99.90;;;;;;4906100;29;20056;-71
2022/09/17 12:32:03;;;;;;;7.20;3.53;;;12.20;99.90;;;;;;4908251;29;20613;-70
2022/09/17 12:35:12;;;;;;;9.88;3.88;;;12.50;99.90;;;;;;4910757;29;20467;-69
2022/09/17 12:37:58;;;;;;;10.73;3.80;;;13.30;99.90;;;;;;4839122;29;20060;-70
2022/09/17 12:40:31;;;;;;;8.93;3.78;;;13.50;99.90;;;;;;4845750;29;20061;-69
2022/09/17 12:43:35;;;;;;;9.50;3.67;;;13.90;99.90;;;;;;4853452;29;20079;-70
2022/09/17 12:46:18;;;;;;;6.35;3.55;;;14.50;99.90;;;;;;4837365;29;20569;-70
2022/09/17 12:49:08;;;;;;;8.68;3.70;;;14.50;99.90;;;;;;4854857;29;20546;-68
2022/09/17 12:52:19;;;;;;;8.73;4.00;;;14.40;99.90;;;;;;4929383;29;20047;-69
2022/09/17 12:54:58;;;;;;;7.90;3.80;;;14.00;99.90;;;;;;4838666;29;20056;-68
2022/09/17 12:57:31;;;;;;;7.45;4.03;;;13.50;99.90;;;;;;4838606;29;20060;-69
2022/09/17 13:00:05;;;;;;;6.63;3.40;;;13.40;99.90;;;;;;4846893;29;20054;-69
2022/09/17 13:02:50;;;;;;;8.68;3.42;;;13.30;99.90;;;;;;4850254;29;20076;-69
2022/09/17 13:05:23;;;;;;;7.63;3.50;;;14.10;99.90;;;;;;4853540;29;20057;-69
2022/09/17 13:08:12;;;;;;;9.32;3.42;;;14.50;99.90;;;;;;4856197;29;20452;-70
2022/09/17 13:11:15;;;;;;;5.80;3.05;;;14.90;99.90;;;;;;4848086;29;20265;-69
2022/09/17 13:13:42;;;;;;;;;;;15.10;99.90;;;;;;4858464;29;20130;-70
2022/09/17 13:16:24;;;;;;;6.53;3.17;;;14.90;99.90;;;;;;4874232;29;19934;-70
2022/09/17 13:19:02;;;;;;;7.95;3.47;;;14.80;99.90;;;;;;4879753;29;20152;-67
2022/09/17 13:21:54;;;;;;;5.45;3.35;;;14.90;99.90;;;;;;4882338;29;20424;-69
2022/09/17 13:24:24;;;;;;;5.97;3.35;;;15.20;99.90;;;;;;4884599;29;20645;-68
2022/09/17 13:26:53;;;;;;;6.55;3.30;;;15.00;99.90;;;;;;4874259;29;20453;-70
2022/09/17 13:29:44;;;;;;;7.00;3.78;;;14.60;99.90;;;;;;4931905;29;20055;-69
2022/09/17 13:32:33;;;;;;;4.38;2.60;;;14.30;99.90;;;;;;4929725;29;20055;-69
2022/09/17 13:35:15;;;;;;;3.38;2.42;;;12.60;99.90;;;;;;4948248;29;20715;-67